Latest Coastal Weather Observations for Albion Park

IDN60701

Issued at 4:31 am EST Friday 23 June 2017 (issued every 10 minutes, with the page automatically refreshed every 10 minutes)

About coastal observations | Map of coastal stations | Coastal observations for NSW | Marine services | Other Formats
Station Details ID: 068241 Name: WOLLONGONG AIRPORT Lat: -34.56 Lon: 150.79 Height: 8.0 m
Data from the previous 72 hours. | See also: Recent months at Albion Park
Date/Time
EST
Temp
°C
Wind Pressure Rain since
9am
mm
Weather Cloud Vis
km
Sea
Height
m
Swell
Dir  Spd
kts
Gust
kts
hPa Trend Height
m
Period
s
Dir
23/04:30am 6.1 WNW 5 6 1020.7 - 0.0 - - 10 - - - -
23/04:00am 4.4 SW 3 4 1020.7 - 0.0 - - 10 - - - -
23/03:30am 4.6 CALM 0 0 1021.1 - 0.0 - - 10 - - - -
23/03:00am 4.7 SW 3 4 1021.3 - 0.0 - - 10 - - - -
23/02:30am 4.7 WSW 3 4 1021.5 - 0.0 - - 10 - - - -
23/02:00am 4.9 W 3 4 1021.7 - 0.0 - - 10 - - - -
23/01:50am 5.4 WNW 3 5 1021.8 - 0.0 - - 10 - - - -
23/01:30am 5.1 CALM 0 0 1022.0 - 0.0 - - 3 - - - -
23/01:29am 5.0 CALM 0 0 1022.0 - 0.0 - - 5 - - - -
23/01:00am 5.5 SW 2 3 1022.2 - 0.0 - - 10 - - - -
23/12:31am 6.2 W 3 4 1022.5 - 0.0 - - 10 - - - -
23/12:30am 6.3 WSW 2 4 1022.5 - 0.0 - - 10 - - - -
23/12:07am 6.6 SW 1 4 1022.7 - 0.0 - - 4 - - - -
23/12:00am 6.6 CALM 0 0 1022.7 - 0.0 - - 9 - - - -
 
Date/Time
EST
Temp
°C
Wind Pressure Rain since
9am
mm
Weather Cloud Vis
km
Sea
Height
m
Swell
Dir  Spd
kts
Gust
kts
hPa Trend Height
m
Period
s
Dir
22/11:30pm 6.4 SW 2 4 1023.2 - 0.0 - - 10 - - - -
22/11:00pm 6.8 WSW 1 4 1023.7 - 0.0 - - 10 - - - -
22/10:30pm 7.2 WSW 4 5 1023.9 - 0.0 - - 10 - - - -
22/10:00pm 7.2 CALM 0 0 1023.8 - 0.0 - - 10 - - - -
22/09:30pm 8.3 CALM 0 0 1024.2 - 0.0 - - 10 - - - -
22/09:00pm 8.8 CALM 0 3 1024.2 - 0.0 - Mostly cloudy 10 - - - -
22/08:30pm 10.0 W 6 7 1024.5 - 0.0 - - 10 - - - -
22/08:00pm 9.9 W 7 8 1024.6 - 0.0 - - 10 - - - -
22/07:30pm 9.8 W 5 6 1024.4 - 0.0 - - 10 - - - -
22/07:00pm 10.1 W 6 6 1024.7 - 0.0 - - 10 - - - -
22/06:30pm 9.6 W 4 5 1024.6 - 0.0 - - 10 - - - -
22/06:00pm 10.0 W 6 6 1024.6 - 0.0 - Partly cloudy 10 - - - -
22/05:30pm 10.6 WSW 5 6 1024.4 - 0.0 - - 10 - - - -
22/05:00pm 12.6 NNE 1 4 1024.2 - 0.0 - - 10 - - - -
22/04:30pm 14.6 NE 3 4 1024.5 - 0.0 - - 10 - - - -
22/04:00pm 16.5 NE 5 7 1024.8 - 0.0 - Partly cloudy 10 - - - -
22/03:30pm 16.9 ENE 5 6 1024.8 - 0.0 - Partly cloudy 10 - - - -
22/03:00pm 16.9 ESE 5 8 1024.5 - 0.0 - Mostly clear 10 - - - -
22/02:30pm 16.8 ESE 6 9 1024.5 - 0.0 - - 10 - - - -
22/02:00pm 16.7 E 7 10 1024.7 - 0.0 - - 10 - - - -
22/01:30pm 17.2 ENE 6 10 1024.9 - 0.0 - - 10 - - - -
22/01:00pm 17.7 NE 6 7 1025.3 - 0.0 - - 10 - - - -
22/12:30pm 17.6 NE 7 9 1025.9 - 0.0 - - 10 - - - -
22/12:00pm 18.6 NE 1 4 1026.6 - 0.0 - - 10 - - - -
22/11:30am 18.0 SW 2 4 1027.2 - 0.0 - - 10 - - - -
22/11:00am 18.0 WSW 1 4 1027.7 - 0.0 - - 10 - - - -
22/10:30am 16.2 CALM 0 0 1028.2 - 0.0 - - 10 - - - -
22/10:00am 16.7 CALM 0 0 1028.5 - 0.0 - - 10 - - - -
22/09:30am 14.5 WSW 4 5 1028.5 - 0.0 - - 10 - - - -
22/09:00am 13.3 W 4 6 1028.6 - 0.2 - - 10 - - - -
22/08:30am 10.9 WSW 4 5 1028.4 - 0.2 - - 10 - - - -
22/08:00am 8.1 WSW 3 5 1028.4 - 0.2 - - 10 - - - -
22/07:30am 6.4 WSW 4 5 1028.2 - 0.2 - - 10 - - - -
22/07:00am 7.0 CALM 0 0 1027.9 - 0.2 - - 10 - - - -
22/06:30am 6.7 WSW 3 4 1027.7 - 0.2 - - 10 - - - -
22/06:00am 7.1 WSW 2 4 1027.4 - 0.2 - - 10 - - - -
22/05:30am 7.2 WSW 3 4 1027.2 - 0.2 - - 10 - - - -
22/05:00am 7.0 WSW 3 4 1027.2 - 0.2 - - 10 - - - -
22/04:30am 8.4 WSW 5 6 1027.2 - 0.2 - - 10 - - - -
22/04:00am 8.8 WSW 7 8 1027.2 - 0.2 - Partly cloudy 10 - - - -
22/03:30am 10.2 WSW 5 7 1027.2 - 0.0 - Partly cloudy 10 - - - -
22/03:00am 9.8 W 7 8 1027.4 - 0.0 - Cloudy 10 - - - -
22/02:30am 8.7 W 5 6 1027.6 - 0.0 - Partly cloudy 10 - - - -
22/02:00am 9.5 W 1 5 1027.7 - 0.0 - Partly cloudy 10 - - - -
22/01:30am 8.9 WSW 7 8 1027.7 - 0.0 - Cloudy 10 - - - -
22/01:00am 8.6 WSW 4 5 1027.8 - 0.0 - Partly cloudy 10 - - - -
22/12:30am 7.9 WSW 4 6 1028.0 - 0.0 - Partly cloudy 10 - - - -
22/12:00am 8.8 WSW 4 6 1028.0 - 0.0 - - 10 - - - -
 
Date/Time
EST
Temp
°C
Wind Pressure Rain since
9am
mm
Weather Cloud Vis
km
Sea
Height
m
Swell
Dir  Spd
kts
Gust
kts
hPa Trend Height
m
Period
s
Dir
21/11:30pm 7.9 CALM 0 0 1028.1 - 0.0 - - 10 - - - -
21/11:00pm 8.7 WSW 1 4 1028.5 - 0.0 - Partly cloudy 10 - - - -
21/10:30pm 8.3 WSW 4 6 1028.4 - 0.0 - Partly cloudy 10 - - - -
21/10:00pm 7.8 WSW 3 6 1028.5 - 0.0 - Partly cloudy 10 - - - -
21/09:30pm 7.3 WNW 2 3 1028.2 - 0.0 - - 10 - - - -
21/09:00pm 7.4 WSW 3 5 1028.4 - 0.0 - - 10 - - - -
21/08:30pm 8.6 CALM 0 0 1028.8 - 0.0 - - 10 - - - -
21/08:00pm 8.5 W 4 5 1028.7 - 0.0 - - 10 - - - -
21/07:30pm 9.4 WNW 6 6 1028.7 - 0.0 - - 10 - - - -
21/07:00pm 8.9 W 5 6 1028.3 - 0.0 - - 10 - - - -
21/06:30pm 10.0 S 5 5 1027.9 - 0.0 - - 10 - - - -
21/06:00pm 10.5 S 3 4 1027.6 - 0.0 - Mostly clear 10 - - - -
21/05:30pm 11.5 S 5 6 1027.1 - 0.0 - - 10 - - - -
21/05:00pm 12.7 S 6 6 1026.7 - 0.0 - - 10 - - - -
21/04:30pm 14.8 SSE 6 8 1026.2 - 0.0 - - 10 - - - -
21/04:00pm 15.3 SSE 6 8 1026.1 - 0.0 - - 10 - - - -
21/03:30pm 16.9 SSE 7 11 1025.9 - 0.0 - - 10 - - - -
21/03:00pm 17.1 SSE 8 13 1026.0 - 0.0 - Mostly clear 10 - - - -
21/02:30pm 18.1 S 7 12 1026.0 - 0.0 - Partly cloudy 10 - - - -
21/02:00pm 17.1 SSE 9 15 1025.9 - 0.0 - - 10 - - - -
21/01:30pm 18.2 SSE 9 14 1025.7 - 0.0 - Partly cloudy 10 - - - -
21/01:00pm 18.0 S 9 15 1025.9 - 0.0 - Partly cloudy 10 - - - -
21/12:30pm 17.8 S 11 15 1026.1 - 0.0 - Partly cloudy 10 - - - -
21/12:00pm 18.1 S 11 17 1026.4 - 0.0 - - 10 - - - -
21/11:30am 17.5 S 10 14 1026.7 - 0.0 - Partly cloudy 10 - - - -
21/11:00am 17.4 SSW 11 14 1026.9 - 0.0 - - 10 - - - -
21/10:30am 16.9 SSW 11 17 1026.9 - 0.0 - Partly cloudy 10 - - - -
21/10:00am 16.5 SSW 9 13 1026.6 - 0.0 - - 10 - - - -
21/09:30am 14.9 WSW 7 11 1026.5 - 0.0 - - 10 - - - -
21/09:00am 11.5 WNW 5 6 1026.2 - 0.0 - Mostly clear 10 - - - -
21/08:30am 7.6 WSW 4 6 1026.0 - 0.0 - - 10 - - - -
21/08:00am 4.9 WSW 3 4 1025.4 - 0.0 - - 10 - - - -
21/07:30am 3.4 WSW 1 4 1025.0 - 0.0 - - 10 - - - -
21/07:00am 2.3 WSW 1 4 1024.5 - 0.0 - - 10 - - - -
21/06:30am 2.9 CALM 0 3 1024.3 - 0.0 - - 10 - - - -
21/06:00am 2.7 WSW 1 4 1023.8 - 0.0 - - 10 - - - -
21/05:30am 2.6 CALM 0 0 1023.5 - 0.0 - - 10 - - - -
21/05:00am 2.9 CALM 0 0 1023.2 - 0.0 - - 10 - - - -
21/04:30am 3.4 CALM 0 0 1023.0 - 0.0 - - 10 - - - -
21/04:00am 3.2 SW 3 5 1023.0 - 0.0 - - 10 - - - -
21/03:30am 3.3 WSW 2 4 1023.0 - 0.0 - - 10 - - - -
21/03:00am 3.7 W 3 4 1023.0 - 0.0 - - 10 - - - -
21/02:30am 3.8 SSW 2 5 1023.0 - 0.0 - - 10 - - - -
21/02:00am 3.5 SSW 2 5 1022.9 - 0.0 - - 10 - - - -
21/01:30am 5.0 W 3 5 1023.0 - 0.0 - - 10 - - - -
21/01:00am 5.0 CALM 0 0 1023.5 - 0.0 - - 10 - - - -
21/12:30am 5.1 SW 1 4 1023.7 - 0.0 - - 10 - - - -
21/12:07am 4.2 WSW 3 4 1023.9 - 0.0 - - 9 - - - -
21/12:00am 4.8 WSW 3 4 1024.0 - 0.0 - - 6 - - - -
 
Date/Time
EST
Temp
°C
Wind Pressure Rain since
9am
mm
Weather Cloud Vis
km
Sea
Height
m
Swell
Dir  Spd
kts
Gust
kts
hPa Trend Height
m
Period
s
Dir
20/11:48pm 5.1 WSW 3 4 1024.2 - 0.0 - - 5 - - - -
20/11:30pm 5.0 WSW 1 3 1024.2 - 0.0 - - 10 - - - -
20/11:13pm 5.3 WSW 2 4 1024.3 - 0.0 - - 10 - - - -
20/11:00pm 5.4 WSW 2 6 1024.5 - 0.0 - - 5 - - - -
20/10:33pm 6.2 WSW 4 9 1024.6 - 0.0 - - 5 - - - -
20/10:30pm 6.7 WSW 4 9 1024.5 - 0.0 - - 6 - - - -
20/10:18pm 6.4 W 3 6 1024.6 - 0.0 - Partly cloudy 10 - - - -
20/10:00pm 5.9 WSW 2 5 1024.6 - 0.0 - Partly cloudy 1 - - - -
20/09:40pm 7.2 CALM 0 0 1024.6 - 0.0 - Partly cloudy 3 - - - -
20/09:30pm 7.1 CALM 0 2 1024.6 - 0.0 - - 10 - - - -
20/09:00pm 7.9 WNW 3 4 1024.9 - 0.0 - - 10 - - - -
20/08:30pm 8.2 WNW 2 4 1025.0 - 0.0 - - 10 - - - -
20/08:00pm 9.4 WNW 2 5 1025.2 - 0.0 - - 10 - - - -
20/07:30pm 9.7 WNW 3 4 1025.3 - 0.0 - - 10 - - - -
20/07:00pm 9.9 WNW 4 5 1025.1 - 0.0 - - 10 - - - -
20/06:30pm 10.2 WNW 4 5 1024.8 - 0.0 - - 10 - - - -
20/06:00pm 11.9 NW 3 5 1024.7 - 0.0 - - 10 - - - -
20/05:30pm 12.1 W 4 5 1024.8 - 0.0 - - 10 - - - -
20/05:00pm 13.6 NNW 3 5 1024.7 - 0.0 - - 10 - - - -
20/04:30pm 16.4 ENE 4 5 1024.9 - 0.0 - - 10 - - - -
20/04:00pm 18.0 ENE 4 6 1024.7 - 0.0 - - 10 - - - -
20/03:30pm 17.6 NE 5 7 1024.8 - 0.0 - - 10 - - - -
20/03:00pm 18.4 NE 6 7 1024.9 - 0.0 - Mostly clear 10 - - - -
20/02:30pm 18.0 ENE 7 8 1025.0 - 0.0 - - 10 - - - -
20/02:00pm 18.9 NE 6 9 1025.3 - 0.0 - - 10 - - - -
20/01:30pm 18.8 NE 7 9 1025.6 - 0.0 - - 10 - - - -
20/01:00pm 19.1 NE 7 8 1025.9 - 0.0 - - 10 - - - -
20/12:30pm 19.0 NE 6 8 1026.5 - 0.0 - Partly cloudy 10 - - - -
20/12:00pm 18.5 SE 1 4 1027.1 - 0.0 - Mostly clear 10 - - - -
20/11:30am 18.1 SSW 4 6 1027.6 - 0.0 - - 10 - - - -
20/11:00am 18.1 SSW 3 6 1028.3 - 0.0 - - 10 - - - -
20/10:30am 18.0 WSW 3 5 1028.7 - 0.0 - - 10 - - - -
20/10:00am 17.6 WNW 3 4 1028.8 - 0.0 - - 10 - - - -
20/09:30am 16.0 W 5 6 1028.8 - 0.0 - - 10 - - - -
20/09:00am 15.0 WSW 7 8 1028.8 - 0.0 - Partly cloudy 10 - - - -
20/08:30am 13.7 SW 5 6 1029.0 - 0.0 - Cloudy 10 - - - -
20/08:00am 11.0 SW 2 4 1029.0 - 0.0 - Cloudy 10 - - - -
20/07:30am 8.7 SW 4 6 1028.8 - 0.0 - Cloudy 10 - - - -
20/07:00am 8.3 SW 3 4 1028.7 - 0.0 - Partly cloudy 10 - - - -
20/06:30am 7.7 SW 2 4 1028.7 - 0.0 - Cloudy 10 - - - -
20/06:00am 7.2 SW 3 4 1028.4 - 0.0 - Partly cloudy 10 - - - -
20/05:30am 6.6 SW 3 4 1028.2 - 0.0 - - 10 - - - -
20/05:00am 6.8 SW 5 7 1027.9 - 0.0 - - 10 - - - -

Other Formats:

Comma delimited format used in spreadsheet applications
http://www.bom.gov.au/fwo/IDN60701/IDN60701.95748.axf

JavaScript Object Notation format (JSON) in row-major order
http://www.bom.gov.au/fwo/IDN60701/IDN60701.95748.json